createdAt,value
2022-08-22T00:00:25.516Z,68.29
2022-08-22T00:02:46.808Z,64.65
2022-08-22T00:02:47.028Z,65.85
2022-08-22T00:03:15.813Z,68.66
2022-08-22T00:06:14.999Z,68.19
2022-08-22T00:09:00.071Z,68.43
2022-08-22T00:12:17.305Z,68.39
2022-08-22T00:15:43.071Z,68.21
2022-08-22T00:18:06.533Z,68.28
2022-08-22T00:20:49.133Z,68.25
2022-08-22T00:23:27.849Z,68.50
2022-08-22T00:26:17.625Z,68.74
2022-08-22T00:28:47.111Z,68.91
2022-08-22T00:31:42.618Z,68.25
2022-08-22T00:34:12.263Z,68.15
2022-08-22T00:36:57.659Z,68.50
2022-08-22T00:39:49.813Z,68.46
2022-08-22T00:42:31.619Z,69.04
2022-08-22T00:45:17.442Z,69.12
2022-08-22T00:48:14.558Z,68.82
2022-08-22T00:50:58.094Z,68.81
2022-08-22T00:53:46.880Z,68.94
2022-08-22T00:56:29.432Z,69.15
2022-08-22T00:59:12.018Z,69.00
2022-08-22T01:02:14.776Z,69.12
2022-08-22T01:04:49.899Z,69.50
2022-08-22T01:07:24.197Z,69.34
2022-08-22T01:10:19.169Z,69.34
2022-08-22T01:13:04.123Z,69.32
2022-08-22T01:15:35.872Z,69.47
2022-08-22T01:18:20.550Z,69.44
2022-08-22T01:21:05.825Z,69.48
2022-08-22T01:24:03.272Z,69.32
2022-08-22T01:26:59.055Z,69.32
2022-08-22T01:30:07.075Z,69.45
2022-08-22T01:33:01.889Z,68.97
2022-08-22T01:35:56.216Z,69.20
2022-08-22T01:38:47.795Z,69.37
2022-08-22T01:41:34.610Z,69.69
2022-08-22T01:44:04.022Z,69.89
2022-08-22T01:46:48.997Z,70.06
2022-08-22T01:49:28.041Z,69.58
2022-08-22T01:52:15.185Z,69.73
2022-08-22T01:54:59.311Z,69.86
2022-08-22T01:57:26.896Z,70.72
2022-08-22T01:59:57.934Z,71.26
2022-08-22T02:02:44.915Z,70.57
2022-08-22T02:05:23.865Z,70.73
2022-08-22T02:07:57.896Z,70.92
2022-08-22T02:11:12.887Z,70.09
2022-08-22T02:13:57.036Z,70.99
2022-08-22T02:16:38.686Z,70.33
2022-08-22T02:19:14.053Z,70.36
2022-08-22T02:21:59.629Z,70.26
2022-08-22T02:25:04.350Z,70.59
2022-08-22T02:27:50.344Z,70.94
2022-08-22T02:30:26.083Z,70.05
2022-08-22T02:32:59.405Z,69.93
2022-08-22T02:35:36.833Z,69.90
2022-08-22T02:38:15.062Z,70.02
2022-08-22T02:40:51.636Z,70.22
2022-08-22T02:43:27.017Z,70.76
2022-08-22T02:46:05.555Z,69.90
2022-08-22T02:48:51.676Z,69.83
2022-08-22T02:51:33.102Z,70.02
2022-08-22T02:54:26.508Z,70.14
2022-08-22T02:57:14.029Z,70.61
2022-08-22T03:00:31.414Z,70.16
2022-08-22T03:03:06.691Z,70.59
2022-08-22T03:05:36.035Z,71.04
2022-08-22T03:08:13.353Z,71.20
2022-08-22T03:10:45.491Z,71.24
2022-08-22T03:13:41.169Z,71.05
2022-08-22T03:16:18.279Z,71.03
2022-08-22T03:19:02.902Z,71.18
2022-08-22T03:21:44.937Z,71.62
2022-08-22T03:24:25.697Z,72.24
2022-08-22T03:26:57.765Z,71.65
2022-08-22T03:29:29.005Z,71.69
2022-08-22T03:32:15.438Z,71.59
2022-08-22T03:35:08.890Z,71.22
2022-08-22T03:37:35.169Z,72.01
2022-08-22T03:40:07.744Z,72.43
2022-08-22T03:42:39.933Z,71.96
2022-08-22T03:45:21.692Z,72.15
2022-08-22T03:48:25.623Z,72.00
2022-08-22T03:51:09.030Z,72.34
2022-08-22T03:53:46.458Z,72.29
2022-08-22T03:57:06.513Z,72.30
2022-08-22T03:59:57.640Z,72.65
2022-08-22T04:02:45.611Z,72.57
2022-08-22T04:05:34.221Z,72.83
2022-08-22T04:08:09.506Z,73.80
2022-08-22T04:11:07.970Z,73.65
2022-08-22T04:13:57.778Z,73.34
2022-08-22T04:16:59.946Z,73.32
2022-08-22T04:19:42.507Z,74.03
2022-08-22T04:22:23.826Z,73.30
2022-08-22T04:25:07.103Z,73.97
2022-08-22T04:28:01.111Z,73.55
2022-08-22T04:30:43.333Z,73.64
2022-08-22T04:33:33.220Z,73.86
2022-08-22T04:36:05.162Z,73.91
2022-08-22T04:38:42.710Z,73.66
2022-08-22T04:41:14.559Z,73.61
2022-08-22T04:44:02.930Z,73.76
2022-08-22T04:46:42.342Z,73.97
2022-08-22T04:49:25.110Z,74.34
2022-08-22T04:52:24.240Z,74.20
2022-08-22T04:55:10.796Z,74.38
2022-08-22T04:57:56.748Z,74.38
2022-08-22T05:00:23.966Z,74.84
2022-08-22T05:02:57.898Z,74.85
2022-08-22T05:05:32.280Z,74.41
2022-08-22T05:08:02.866Z,74.69
2022-08-22T05:10:40.736Z,74.79
2022-08-22T05:13:24.315Z,74.19
2022-08-22T05:15:57.102Z,74.69
2022-08-22T05:18:32.046Z,74.44
2022-08-22T05:21:02.142Z,74.97
2022-08-22T05:23:41.513Z,75.30
2022-08-22T05:26:09.528Z,75.29
2022-08-22T05:28:40.539Z,75.08
2022-08-22T05:31:10.988Z,75.29
2022-08-22T05:33:59.305Z,75.23
2022-08-22T05:36:29.202Z,75.11
2022-08-22T05:39:03.027Z,75.64
2022-08-22T05:41:35.980Z,75.57
2022-08-22T05:44:03.094Z,75.56
2022-08-22T05:46:41.613Z,75.61
2022-08-22T05:49:19.037Z,75.69
2022-08-22T05:52:07.635Z,75.51
2022-08-22T05:54:48.082Z,75.67
2022-08-22T05:57:32.691Z,75.94
2022-08-22T06:00:07.604Z,75.74
2022-08-22T06:02:56.059Z,75.76
2022-08-22T06:05:29.196Z,75.77
2022-08-22T06:08:03.151Z,75.81
2022-08-22T06:10:48.241Z,76.13
2022-08-22T06:13:29.878Z,76.30
2022-08-22T06:16:10.221Z,76.35
2022-08-22T06:18:42.213Z,76.35
2022-08-22T06:21:25.157Z,76.32
2022-08-22T06:24:00.843Z,76.07
2022-08-22T06:26:37.999Z,75.97
2022-08-22T06:29:07.293Z,76.14
2022-08-22T06:31:42.972Z,75.81
2022-08-22T06:34:14.291Z,76.02
2022-08-22T06:36:46.444Z,76.32
2022-08-22T06:39:16.346Z,75.98
2022-08-22T06:41:52.242Z,76.01
2022-08-22T06:44:23.864Z,75.68
2022-08-22T06:46:55.273Z,75.98
2022-08-22T06:49:23.509Z,75.52
2022-08-22T06:51:51.148Z,76.05
2022-08-22T06:54:25.131Z,75.65
2022-08-22T06:56:55.300Z,76.19
2022-08-22T06:59:27.273Z,76.16
2022-08-22T07:02:16.489Z,75.84
2022-08-22T07:04:43.950Z,75.74
2022-08-22T07:07:10.399Z,75.57
2022-08-22T07:09:40.291Z,75.22
2022-08-22T07:12:29.201Z,75.69
2022-08-22T07:15:01.677Z,75.58
2022-08-22T07:17:32.670Z,75.69
2022-08-22T07:20:10.566Z,75.22
2022-08-22T07:22:37.916Z,75.15
2022-08-22T07:25:15.954Z,75.51
2022-08-22T07:28:03.933Z,75.51
2022-08-22T07:30:58.317Z,75.44
2022-08-22T07:33:40.586Z,74.87
2022-08-22T07:36:22.967Z,75.07
2022-08-22T07:39:24.804Z,74.67
2022-08-22T07:42:32.631Z,74.18
2022-08-22T07:45:14.717Z,74.09
2022-08-22T07:47:48.027Z,74.39
2022-08-22T07:50:26.722Z,73.68
2022-08-22T07:53:01.159Z,74.17
2022-08-22T07:55:28.565Z,73.34
2022-08-22T07:58:04.905Z,73.06
2022-08-22T08:00:32.375Z,72.16
2022-08-22T08:03:05.664Z,72.58
2022-08-22T08:05:36.139Z,71.56
2022-08-22T08:08:12.332Z,71.17
2022-08-22T08:10:42.561Z,71.62
2022-08-22T08:13:16.700Z,71.49
2022-08-22T08:15:45.658Z,71.46
2022-08-22T08:18:19.343Z,71.45
2022-08-22T08:20:51.905Z,71.32
2022-08-22T08:23:22.244Z,70.73
2022-08-22T08:25:57.443Z,70.43
2022-08-22T08:28:37.923Z,69.69
2022-08-22T08:31:23.114Z,69.70
2022-08-22T08:33:53.842Z,69.89
2022-08-22T08:36:48.204Z,69.10
2022-08-22T08:39:35.795Z,69.24
2022-08-22T08:42:32.205Z,68.46
2022-08-22T08:45:37.396Z,69.22
2022-08-22T08:48:36.292Z,68.13
2022-08-22T08:51:49.013Z,67.56
2022-08-22T08:54:34.888Z,66.65
2022-08-22T08:57:15.377Z,66.65
2022-08-22T08:59:45.314Z,65.81
2022-08-22T09:02:50.184Z,65.54
2022-08-22T09:05:56.449Z,67.38
2022-08-22T09:09:07.168Z,65.48
2022-08-22T09:11:57.451Z,65.76
2022-08-22T09:14:35.940Z,65.19
2022-08-22T09:17:21.223Z,64.42
2022-08-22T09:20:17.840Z,64.19
2022-08-22T09:22:58.343Z,63.32
2022-08-22T09:25:50.796Z,62.51
2022-08-22T09:28:40.451Z,62.47
2022-08-22T09:31:47.391Z,62.45
2022-08-22T09:34:26.001Z,62.44
2022-08-22T09:37:25.678Z,61.80
2022-08-22T09:40:17.267Z,61.24
2022-08-22T09:43:11.956Z,59.99
2022-08-22T09:46:01.946Z,60.50
2022-08-22T09:48:34.557Z,59.75
2022-08-22T09:51:31.525Z,58.94
2022-08-22T09:54:36.747Z,59.50
2022-08-22T09:57:29.977Z,59.35
2022-08-22T10:00:22.403Z,58.51
2022-08-22T10:03:27.774Z,59.34
2022-08-22T10:06:11.869Z,58.69
2022-08-22T10:08:59.911Z,58.72
2022-08-22T10:11:43.564Z,57.81
2022-08-22T10:14:22.335Z,57.54
2022-08-22T10:16:52.249Z,58.13
2022-08-22T10:19:32.406Z,59.31
2022-08-22T10:22:20.922Z,57.87
2022-08-22T10:24:51.790Z,56.50
2022-08-22T10:27:32.512Z,54.71
2022-08-22T10:30:08.554Z,55.68
2022-08-22T10:32:53.573Z,54.89
2022-08-22T10:35:35.365Z,53.02
2022-08-22T10:38:23.812Z,53.95
2022-08-22T10:41:25.244Z,54.40
2022-08-22T10:43:56.447Z,53.23
2022-08-22T10:46:52.025Z,54.07
2022-08-22T10:49:32.357Z,52.50
2022-08-22T10:52:15.618Z,53.98
2022-08-22T10:54:51.274Z,52.52
2022-08-22T10:57:40.407Z,51.71
2022-08-22T11:00:46.541Z,53.28
2022-08-22T11:03:39.473Z,51.84
2022-08-22T11:06:13.874Z,52.92
2022-08-22T11:09:04.275Z,53.73
2022-08-22T11:11:58.514Z,52.16
2022-08-22T11:14:35.576Z,50.63
2022-08-22T11:17:30.979Z,50.61
2022-08-22T11:20:28.619Z,51.93
2022-08-22T11:23:12.371Z,51.25
2022-08-22T11:26:05.815Z,50.25
2022-08-22T11:29:11.271Z,51.76
2022-08-22T11:31:51.516Z,51.78
2022-08-22T11:34:57.273Z,51.42
2022-08-22T11:37:42.431Z,51.43
2022-08-22T11:40:37.544Z,48.88
2022-08-22T11:43:07.735Z,48.89
2022-08-22T11:45:49.273Z,47.92
2022-08-22T11:48:21.957Z,49.61
2022-08-22T11:51:13.402Z,48.95
2022-08-22T11:53:49.414Z,48.36
2022-08-22T11:56:32.111Z,47.62
2022-08-22T11:59:02.450Z,47.63
2022-08-22T12:01:41.610Z,46.96
2022-08-22T12:04:31.200Z,47.81
2022-08-22T12:07:12.895Z,49.77
2022-08-22T12:09:52.090Z,45.23
2022-08-22T12:12:52.594Z,47.32
2022-08-22T12:15:40.467Z,45.04
2022-08-22T12:18:21.331Z,43.28
2022-08-22T12:21:09.431Z,45.95
2022-08-22T12:23:57.727Z,46.76
2022-08-22T12:26:46.454Z,46.41
2022-08-22T12:29:19.863Z,44.45
2022-08-22T12:32:20.644Z,44.24
2022-08-22T12:35:14.443Z,45.70
2022-08-22T12:37:56.681Z,45.72
2022-08-22T12:40:50.768Z,45.59
2022-08-22T12:43:42.770Z,46.79
2022-08-22T12:46:17.182Z,46.62
2022-08-22T12:49:07.667Z,46.46
2022-08-22T12:52:11.774Z,45.66
2022-08-22T12:55:06.699Z,47.15
2022-08-22T12:57:54.444Z,46.80
2022-08-22T13:00:40.351Z,46.79
2022-08-22T13:03:11.860Z,47.19
2022-08-22T13:05:44.381Z,46.76
2022-08-22T13:08:25.102Z,46.35
2022-08-22T13:11:01.427Z,44.17
2022-08-22T13:13:41.660Z,45.04
2022-08-22T13:16:15.425Z,44.53
2022-08-22T13:19:07.719Z,44.04
2022-08-22T13:21:43.236Z,43.08
2022-08-22T13:24:16.991Z,43.96
2022-08-22T13:26:57.850Z,45.13
2022-08-22T13:29:39.586Z,44.52
2022-08-22T13:32:21.406Z,44.46
2022-08-22T13:34:55.904Z,43.70
2022-08-22T13:37:45.518Z,44.48
2022-08-22T13:40:29.504Z,44.81
2022-08-22T13:43:04.608Z,44.92
2022-08-22T13:45:34.586Z,44.34
2022-08-22T13:48:08.695Z,44.73
2022-08-22T13:50:54.075Z,45.41
2022-08-22T13:53:58.075Z,45.30
2022-08-22T13:56:44.166Z,45.52
2022-08-22T13:59:50.292Z,45.15
2022-08-22T14:02:30.984Z,45.05
2022-08-22T14:05:06.683Z,43.88
2022-08-22T14:07:38.756Z,41.73
2022-08-22T14:10:14.890Z,39.63
2022-08-22T14:13:04.692Z,39.93
2022-08-22T14:15:45.560Z,38.29
2022-08-22T14:18:30.483Z,39.17
2022-08-22T14:21:27.280Z,37.89
2022-08-22T14:23:58.568Z,39.25
2022-08-22T14:26:32.882Z,38.75
2022-08-22T14:29:02.705Z,40.51
2022-08-22T14:31:30.639Z,40.56
2022-08-22T14:34:01.589Z,37.66
2022-08-22T14:36:34.691Z,38.86
2022-08-22T14:39:35.143Z,38.18
2022-08-22T14:42:15.377Z,36.72
2022-08-22T14:44:52.043Z,34.72
2022-08-22T14:48:14.185Z,35.34
2022-08-22T14:50:54.323Z,30.75
2022-08-22T14:53:26.820Z,30.49
2022-08-22T14:56:19.069Z,31.66
2022-08-22T14:59:05.331Z,31.15
2022-08-22T15:01:51.534Z,31.04
2022-08-22T15:04:25.526Z,30.70
2022-08-22T15:06:58.501Z,27.55
2022-08-22T15:09:41.493Z,26.82
2022-08-22T15:12:20.238Z,26.25
2022-08-22T15:14:52.194Z,24.32
2022-08-22T15:17:51.123Z,24.65
2022-08-22T15:20:36.346Z,23.89
2022-08-22T15:23:20.690Z,25.54
2022-08-22T15:26:00.710Z,23.85
2022-08-22T15:28:29.604Z,22.13
2022-08-22T15:31:17.091Z,23.67
2022-08-22T15:33:46.129Z,26.40
2022-08-22T15:36:18.561Z,29.84
2022-08-22T15:38:51.485Z,32.60
2022-08-22T15:41:37.017Z,34.25
2022-08-22T15:44:32.479Z,34.67
2022-08-22T15:47:02.377Z,37.38
2022-08-22T15:49:34.577Z,38.03
2022-08-22T15:52:01.067Z,37.58
2022-08-22T15:54:44.252Z,38.51
2022-08-22T15:57:24.761Z,38.68
2022-08-22T16:00:28.347Z,39.35
2022-08-22T16:02:56.288Z,39.50
2022-08-22T16:05:36.660Z,40.26
2022-08-22T16:08:52.392Z,40.32
2022-08-22T16:11:33.007Z,40.00
2022-08-22T16:14:21.392Z,39.80
2022-08-22T16:16:56.346Z,41.05
2022-08-22T16:19:25.138Z,40.25
2022-08-22T16:21:51.428Z,40.80
2022-08-22T16:24:17.870Z,40.73
2022-08-22T16:26:44.366Z,40.66
2022-08-22T16:29:13.658Z,40.20
2022-08-22T16:31:44.047Z,40.46
2022-08-22T16:34:16.634Z,40.20
2022-08-22T16:37:23.217Z,41.28
2022-08-22T16:39:53.384Z,42.02
2022-08-22T16:42:24.228Z,42.48
2022-08-22T16:45:02.694Z,43.40
2022-08-22T16:47:38.727Z,43.35
2022-08-22T16:50:09.081Z,42.43
2022-08-22T16:52:50.164Z,42.69
2022-08-22T16:55:28.783Z,43.58
2022-08-22T16:58:06.800Z,42.40
2022-08-22T17:00:36.297Z,44.00
2022-08-22T17:04:00.072Z,43.60
2022-08-22T17:06:53.391Z,43.61
2022-08-22T17:09:44.151Z,43.96
2022-08-22T17:12:10.551Z,43.73
2022-08-22T17:15:00.805Z,44.57
2022-08-22T17:17:54.623Z,44.75
2022-08-22T17:20:46.591Z,45.43
2022-08-22T17:23:49.118Z,44.72
2022-08-22T17:26:40.471Z,45.72
2022-08-22T17:29:32.151Z,45.31
2022-08-22T17:32:20.859Z,45.74
2022-08-22T17:34:56.893Z,45.56
2022-08-22T17:37:48.735Z,45.16
2022-08-22T17:40:37.029Z,46.50
2022-08-22T17:43:23.789Z,46.65
2022-08-22T17:46:03.547Z,46.17
2022-08-22T17:48:47.987Z,46.23
2022-08-22T17:51:28.639Z,46.62
2022-08-22T17:54:05.711Z,46.35
2022-08-22T17:56:44.336Z,45.77
2022-08-22T17:59:20.955Z,46.87
2022-08-22T18:01:59.650Z,46.81
2022-08-22T18:04:34.198Z,47.42
2022-08-22T18:07:37.916Z,47.23
2022-08-22T18:10:19.461Z,47.65
2022-08-22T18:12:57.989Z,48.08
2022-08-22T18:15:57.405Z,48.66
2022-08-22T18:19:14.265Z,48.64
2022-08-22T18:22:05.234Z,48.95
2022-08-22T18:24:57.424Z,49.21
2022-08-22T18:27:54.011Z,49.59
2022-08-22T18:30:28.897Z,49.41
2022-08-22T18:33:28.450Z,49.71
2022-08-22T18:36:15.036Z,49.58
2022-08-22T18:38:54.361Z,50.32
2022-08-22T18:42:09.459Z,50.19
2022-08-22T18:44:37.968Z,50.38
2022-08-22T18:47:18.808Z,50.45
2022-08-22T18:49:48.438Z,51.13
2022-08-22T18:52:19.694Z,51.52
2022-08-22T18:55:16.433Z,50.94
2022-08-22T18:58:02.682Z,51.05
2022-08-22T19:00:46.075Z,50.90
2022-08-22T19:03:31.190Z,51.19
2022-08-22T19:06:22.535Z,51.76
2022-08-22T19:09:20.604Z,51.05
2022-08-22T19:12:06.451Z,52.12
2022-08-22T19:15:10.717Z,51.84
2022-08-22T19:17:55.428Z,51.21
2022-08-22T19:20:54.611Z,51.48
2022-08-22T19:23:36.889Z,52.37
2022-08-22T19:26:29.259Z,51.94
2022-08-22T19:29:21.283Z,51.63
2022-08-22T19:31:57.891Z,52.86
2022-08-22T19:34:30.285Z,52.23
2022-08-22T19:37:32.613Z,52.15
2022-08-22T19:40:06.492Z,53.39
2022-08-22T19:42:36.449Z,52.84
2022-08-22T19:45:20.797Z,52.96
2022-08-22T19:47:58.234Z,53.43
2022-08-22T19:50:31.093Z,53.86
2022-08-22T19:52:57.888Z,53.78
2022-08-22T19:55:46.144Z,53.65
2022-08-22T19:58:35.061Z,54.02
2022-08-22T20:01:11.387Z,53.42
2022-08-22T20:03:49.779Z,53.32
2022-08-22T20:06:44.708Z,53.66
2022-08-22T20:09:52.939Z,54.05
2022-08-22T20:12:33.044Z,54.33
2022-08-22T20:15:16.273Z,53.97
2022-08-22T20:17:43.704Z,54.35
2022-08-22T20:20:35.224Z,54.39
2022-08-22T20:23:12.269Z,54.40
2022-08-22T20:25:44.177Z,55.25
2022-08-22T20:28:29.584Z,54.51
2022-08-22T20:31:01.376Z,55.22
2022-08-22T20:33:38.389Z,55.27
2022-08-22T20:36:27.212Z,55.37
2022-08-22T20:39:00.261Z,56.05
2022-08-22T20:41:37.406Z,55.87
2022-08-22T20:44:22.153Z,56.22
2022-08-22T20:46:53.483Z,55.86
2022-08-22T20:49:25.909Z,56.88
2022-08-22T20:51:54.939Z,56.41
2022-08-22T20:54:24.290Z,56.19
2022-08-22T20:56:54.686Z,56.19
2022-08-22T20:59:21.638Z,56.38
2022-08-22T21:01:53.891Z,56.67
2022-08-22T21:04:21.874Z,57.37
2022-08-22T21:06:59.630Z,56.76
2022-08-22T21:09:44.633Z,57.22
2022-08-22T21:12:11.367Z,57.04
2022-08-22T21:14:45.963Z,57.64
2022-08-22T21:17:29.221Z,57.45
2022-08-22T21:20:21.966Z,57.18
2022-08-22T21:22:49.295Z,57.40
2022-08-22T21:25:15.864Z,57.14
2022-08-22T21:27:46.575Z,57.22
2022-08-22T21:30:23.709Z,57.71
2022-08-22T21:32:55.740Z,57.33
2022-08-22T21:35:30.419Z,57.78
2022-08-22T21:37:58.971Z,57.66
2022-08-22T21:40:35.403Z,58.42
2022-08-22T21:43:09.227Z,58.13
2022-08-22T21:45:45.292Z,58.48
2022-08-22T21:48:33.284Z,57.99
2022-08-22T21:51:39.559Z,57.94
2022-08-22T21:54:21.445Z,58.41
2022-08-22T21:56:49.996Z,58.62
2022-08-22T21:59:51.651Z,58.37
2022-08-22T22:02:27.841Z,58.42
2022-08-22T22:04:55.163Z,58.89
2022-08-22T22:07:24.128Z,58.55
2022-08-22T22:09:54.493Z,58.86
2022-08-22T22:12:21.635Z,59.20
2022-08-22T22:14:49.358Z,59.08
2022-08-22T22:17:17.886Z,59.29
2022-08-22T22:19:44.773Z,59.29
2022-08-22T22:22:11.164Z,59.74
2022-08-22T22:24:37.632Z,59.96
2022-08-22T22:27:05.500Z,59.88
2022-08-22T22:29:33.149Z,59.75
2022-08-22T22:31:59.634Z,59.62
2022-08-22T22:34:26.277Z,60.05
2022-08-22T22:36:53.924Z,59.76
2022-08-22T22:39:20.393Z,60.29
2022-08-22T22:41:46.783Z,60.25
2022-08-22T22:44:13.264Z,60.13
2022-08-22T22:46:39.654Z,60.36
2022-08-22T22:49:06.066Z,60.76
2022-08-22T22:51:32.532Z,60.69
2022-08-22T22:53:59.187Z,60.88
2022-08-22T22:56:26.243Z,60.46
2022-08-22T22:59:01.002Z,60.71
2022-08-22T23:02:00.744Z,60.99
2022-08-22T23:04:27.831Z,61.66
2022-08-22T23:06:54.332Z,60.99
2022-08-22T23:09:20.756Z,61.39
2022-08-22T23:11:54.614Z,61.43
2022-08-22T23:14:21.020Z,61.80
2022-08-22T23:16:48.306Z,61.47
2022-08-22T23:19:16.885Z,61.42
2022-08-22T23:21:45.172Z,61.83
2022-08-22T23:24:13.802Z,61.97
2022-08-22T23:26:40.388Z,61.91
2022-08-22T23:29:07.150Z,61.80
2022-08-22T23:31:38.605Z,62.37
2022-08-22T23:34:13.712Z,61.94
2022-08-22T23:36:43.564Z,62.46
2022-08-22T23:39:10.223Z,62.95
2022-08-22T23:41:37.343Z,62.71
2022-08-22T23:44:05.997Z,62.91
2022-08-22T23:46:32.909Z,63.03
2022-08-22T23:49:01.889Z,62.91
2022-08-22T23:51:28.401Z,63.06
2022-08-22T23:53:56.936Z,62.75
2022-08-22T23:56:40.539Z,63.18
2022-08-22T23:59:13.025Z,63.20
